Contact Us:
Email: info@sawbill.com
Phone: (218)663-7150
Fax: (218)663-7980
Mail: 4620 Sawbill Trail
Box 2129
Tofte, MN 55615


Powered by
Movable Type 3.15
 
Sawbill Weather History Archives: December 2002
Current Sawbill Weather History | « November 2002 | January 2003 »


Date

High
Temperature

Low
Temperature

Barometric
Pressure

Relative
Humidity 7AM

9 AM
Temperature

Moisture

Snow

12/31/02 15 1 29.39 61% 8 0  
12/30/02 34 6 29.01 63% 6 Trace  
12/29/02 32 8 28.65 89% 19 Trace  
12/28/02 33 7 29.17 64% 8 0  
12/27/02 37 15 29.96 72% 16 0  
12/26/02 32 11 29.02 68% 15 0  
12/25/02 27 10 29.18 68% 10 0  
12/24/02 23 11 29.07 76% 19 0  
12/23/02 17 10 29.19 70% 11 0  
12/22/02 23 9 29.97 70% 10 .01" 1"
12/21/02 24 18 29.74 77% 19 .01" 1"
12/19/02 35 26 29.40 80% 27 .05" 1.5"
12/18/02 36 31 28.59 87% 35 .02" Ice
12/17/02 31 26 28.82 85% 31 Trace Ice
12/16/02 27 16 29.19 80% 26 0  
12/15/02 29 6 29.34 77% 15 0  
12/14/02 41 20 29.20 66% 22 0  
12/13/02 33 29 28.85 86% 29 0  
12/12/02 33 20 29.12 84% 31 0  
12/11/02 39 25 29.02 83% 30 0  
12/10/02 43 13 29.96 85% 25 0  
12/09/02 30 18 29.10 75% 19 0  
12/08/02 20 -3 29.09 70% 19 0  
12/07/02 22 -2 29.47 54% -2 0  
12/06/02 30 -2 29.97 70% 17 0  
12/04/02 18 -4 30.19 62% 4 0  
12/03/02 16 -6 29.57 56% -4 0  
12/02/02 10 -17 29.63 58% -5 0  
12/01/02 22 -8 29.24 59% -5 0  
 


Home I Trip Planning I Rentals and Outfitting I Reservations I Campgrounds I Sawbill Store I Sawbill News I Contact

© 1997 - 2017, Sawbill Canoe Outfitters, Inc. I Privacy Policy